CheckWX is a tool to help pilots better visualize weather data.  It is not intended as a substitute for an official pre-flight weather briefing.

06:56:30 UTC

SBMN TAF
Ponta Pelada Airport
Manaus, Brazil
TAF SBMN 190400Z 1906/1918 06003KT CAVOK TN26/1908Z TX31/1917Z BECMG 1913/1914 08005KT SCT020 BECMG 1916/1917 SCT020 FEW025TCU RMK PFM

Jun-19@
06:00 UTC

Jun-19 @ 06:00 UTC

Jun-19@
13:00 UTC

Jun-19 @ 13:00 UTC

TAF SBMN 190400Z 1906/1918 06003KT CAVOK TN26/1908Z TX31/1917Z
Wind
  • 060° at 3 KTS
Cloud Levels
  • No significant clouds

Jun-19@
13:00 UTC

Jun-19 @ 13:00 UTC

Jun-19@
16:00 UTC

Jun-19 @ 16:00 UTC

BECMG 1913/1914 08005KT SCT020

Becoming

Becoming Conditions expected by Wed, Jun 19, 2019 @ 14:00 UTC

Wind
  • 080° at 5 KTS
Cloud Levels
  • Scattered at 2,000' AGL

Jun-19@
16:00 UTC

Jun-19 @ 16:00 UTC

Jun-19@
18:00 UTC

Jun-19 @ 18:00 UTC

BECMG 1916/1917 SCT020 FEW025TCU RMK PFM

Becoming

Becoming Conditions expected by Wed, Jun 19, 2019 @ 17:00 UTC

Wind
  • 080° at 5 KTS
Cloud Levels
  • Scattered at 2,000' AGL
  • Few at 2,500' AGL